createdAt,value
2022-09-10T00:02:02.347Z,98122.09
2022-09-10T00:04:28.986Z,98121.81
2022-09-10T00:06:56.270Z,98124.06
2022-09-10T00:09:23.647Z,98127.84
2022-09-10T00:11:50.447Z,98117.66
2022-09-10T00:14:21.313Z,98125.31
2022-09-10T00:16:48.465Z,98112.06
2022-09-10T00:19:16.086Z,98117.75
2022-09-10T00:21:44.402Z,98123.97
2022-09-10T00:24:11.262Z,98120.53
2022-09-10T00:26:39.465Z,98119.81
2022-09-10T00:29:09.253Z,98117.88
2022-09-10T00:31:37.237Z,98117.72
2022-09-10T00:34:05.866Z,98095.72
2022-09-10T00:36:36.251Z,98111.91
2022-09-10T00:39:07.135Z,98113.47
2022-09-10T00:41:36.694Z,98110.47
2022-09-10T00:44:06.698Z,98121.63
2022-09-10T00:46:44.359Z,98119.13
2022-09-10T00:49:32.321Z,98103.63
2022-09-10T00:52:00.888Z,98120.88
2022-09-10T00:54:29.565Z,98116.13
2022-09-10T00:57:02.600Z,98124.50
2022-09-10T00:59:31.018Z,98115.03
2022-09-10T01:01:59.647Z,98129.94
2022-09-10T01:04:28.713Z,98128.97
2022-09-10T01:06:56.121Z,98109.63
2022-09-10T01:09:24.180Z,98130.13
2022-09-10T01:12:06.923Z,98133.94
2022-09-10T01:14:51.541Z,98135.19
2022-09-10T01:17:45.587Z,98137.34
2022-09-10T01:21:12.985Z,98138.22
2022-09-10T01:24:12.711Z,98134.50
2022-09-10T01:26:59.036Z,98138.91
2022-09-10T01:29:52.198Z,98145.44
2022-09-10T01:32:57.908Z,98138.59
2022-09-10T01:35:57.039Z,98155.25
2022-09-10T01:38:27.722Z,98152.41
2022-09-10T01:40:56.218Z,98152.31
2022-09-10T01:43:25.109Z,98140.88
2022-09-10T01:46:20.718Z,98156.16
2022-09-10T01:48:59.845Z,98160.13
2022-09-10T01:51:42.002Z,98162.16
2022-09-10T01:55:04.006Z,98162.97
2022-09-10T01:57:52.963Z,98166.94
2022-09-10T02:00:21.979Z,98169.53
2022-09-10T02:02:57.743Z,98172.25
2022-09-10T02:05:30.255Z,98165.69
2022-09-10T02:08:03.726Z,98159.75
2022-09-10T02:10:30.824Z,98149.78
2022-09-10T02:12:58.258Z,98144.88
2022-09-10T02:15:56.747Z,98161.81
2022-09-10T02:18:26.848Z,98156.91
2022-09-10T02:20:56.514Z,98161.13
2022-09-10T02:23:31.428Z,98162.09
2022-09-10T02:25:58.402Z,98154.69
2022-09-10T02:28:28.389Z,98159.75
2022-09-10T02:30:55.067Z,98155.31
2022-09-10T02:33:21.932Z,98167.63
2022-09-10T02:35:49.740Z,98167.34
2022-09-10T02:38:18.099Z,98181.28
2022-09-10T02:40:49.410Z,98163.53
2022-09-10T02:43:17.314Z,98175.97
2022-09-10T02:45:44.653Z,98173.13
2022-09-10T02:48:11.318Z,98178.16
2022-09-10T02:50:38.542Z,98182.13
2022-09-10T02:53:05.665Z,98180.19
2022-09-10T02:55:32.703Z,98171.31
2022-09-10T02:57:59.316Z,98175.00
2022-09-10T03:00:26.075Z,98178.81
2022-09-10T03:03:00.881Z,98175.56
2022-09-10T03:05:29.870Z,98172.00
2022-09-10T03:07:57.438Z,98180.06
2022-09-10T03:10:24.447Z,98179.09
2022-09-10T03:12:51.071Z,98167.09
2022-09-10T03:15:20.533Z,98180.47
2022-09-10T03:17:48.110Z,98176.25
2022-09-10T03:20:14.972Z,98181.06
2022-09-10T03:22:41.551Z,98184.59
2022-09-10T03:25:11.704Z,98158.88
2022-09-10T03:27:38.733Z,98193.03
2022-09-10T03:30:08.289Z,98181.03
2022-09-10T03:32:34.988Z,98184.56
2022-09-10T03:35:01.508Z,98196.59
2022-09-10T03:37:28.474Z,98184.44
2022-09-10T03:39:55.040Z,98189.22
2022-09-10T03:42:21.715Z,98188.09
2022-09-10T03:44:48.286Z,98186.47
2022-09-10T03:47:15.026Z,98188.53
2022-09-10T03:49:41.548Z,98179.22
2022-09-10T03:52:12.627Z,98195.50
2022-09-10T03:54:41.237Z,98176.84
2022-09-10T03:57:08.432Z,98194.66
2022-09-10T03:59:35.627Z,98206.38
2022-09-10T04:02:03.098Z,98199.56
2022-09-10T04:04:31.447Z,98199.31
2022-09-10T04:06:58.030Z,98189.56
2022-09-10T04:09:24.533Z,98199.72
2022-09-10T04:11:51.857Z,98182.88
2022-09-10T04:14:21.649Z,98211.53
2022-09-10T04:16:48.353Z,98206.09
2022-09-10T04:19:14.984Z,98207.44
2022-09-10T04:21:41.713Z,98203.25
2022-09-10T04:24:12.188Z,98207.97
2022-09-10T04:26:39.450Z,98209.03
2022-09-10T04:29:06.907Z,98211.66
2022-09-10T04:31:33.553Z,98203.03
2022-09-10T04:34:08.504Z,98210.19
2022-09-10T04:36:35.054Z,98216.22
2022-09-10T04:39:02.221Z,98202.56
2022-09-10T04:41:30.549Z,98205.81
2022-09-10T04:43:58.535Z,98226.75
2022-09-10T04:46:25.894Z,98222.50
2022-09-10T04:48:54.356Z,98220.31
2022-09-10T04:51:23.431Z,98231.50
2022-09-10T04:53:53.256Z,98230.69
2022-09-10T04:56:24.203Z,98222.78
2022-09-10T04:58:51.732Z,98236.38
2022-09-10T05:01:19.072Z,98233.13
2022-09-10T05:03:49.245Z,98250.97
2022-09-10T05:06:15.855Z,98252.19
2022-09-10T05:08:45.954Z,98251.56
2022-09-10T05:11:13.210Z,98250.19
2022-09-10T05:13:40.411Z,98249.91
2022-09-10T05:16:07.765Z,98255.22
2022-09-10T05:18:34.908Z,98263.13
2022-09-10T05:21:02.248Z,98253.41
2022-09-10T05:23:28.893Z,98259.03
2022-09-10T05:25:58.320Z,98268.19
2022-09-10T05:28:26.735Z,98268.78
2022-09-10T05:30:53.338Z,98268.19
2022-09-10T05:33:23.019Z,98258.75
2022-09-10T05:35:52.756Z,98266.19
2022-09-10T05:38:20.945Z,98270.25
2022-09-10T05:40:48.200Z,98270.13
2022-09-10T05:43:14.925Z,98264.25
2022-09-10T05:45:43.502Z,98275.19
2022-09-10T05:48:10.173Z,98274.31
2022-09-10T05:50:38.434Z,98265.91
2022-09-10T05:53:05.306Z,98269.22
2022-09-10T05:55:33.295Z,98262.22
2022-09-10T05:58:00.589Z,98278.25
2022-09-10T06:00:27.416Z,98280.28
2022-09-10T06:03:01.250Z,98268.84
2022-09-10T06:05:33.065Z,98274.44
2022-09-10T06:08:05.391Z,98275.41
2022-09-10T06:10:36.855Z,98280.19
2022-09-10T06:13:03.400Z,98270.66
2022-09-10T06:15:33.119Z,98275.72
2022-09-10T06:18:01.815Z,98285.56
2022-09-10T06:20:28.945Z,98272.03
2022-09-10T06:22:55.678Z,98286.97
2022-09-10T06:25:22.477Z,98285.31
2022-09-10T06:27:49.038Z,98275.78
2022-09-10T06:30:17.546Z,98283.97
2022-09-10T06:32:47.190Z,98271.38
2022-09-10T06:35:14.243Z,98285.34
2022-09-10T06:37:41.043Z,98281.38
2022-09-10T06:40:09.794Z,98287.53
2022-09-10T06:42:37.064Z,98284.41
2022-09-10T06:45:12.567Z,98288.22
2022-09-10T06:48:37.724Z,98283.84
2022-09-10T06:50:53.310Z,98294.78
2022-09-10T06:53:23.625Z,98292.56
2022-09-10T06:55:52.311Z,98301.47
2022-09-10T06:58:21.431Z,98300.38
2022-09-10T07:00:48.203Z,98300.38
2022-09-10T07:03:19.407Z,98296.00
2022-09-10T07:05:47.049Z,98292.03
2022-09-10T07:08:16.024Z,98288.88
2022-09-10T07:10:44.817Z,98293.22
2022-09-10T07:13:15.191Z,98282.16
2022-09-10T07:15:46.751Z,98293.13
2022-09-10T07:18:15.688Z,98284.88
2022-09-10T07:20:43.711Z,98289.78
2022-09-10T07:23:12.846Z,98290.31
2022-09-10T07:25:42.043Z,98278.28
2022-09-10T07:28:18.129Z,98289.94
2022-09-10T07:30:47.428Z,98294.56
2022-09-10T07:33:15.138Z,98297.84
2022-09-10T07:35:43.331Z,98303.28
2022-09-10T07:38:16.901Z,98303.16
2022-09-10T07:40:45.315Z,98314.09
2022-09-10T07:43:12.731Z,98303.41
2022-09-10T07:45:40.462Z,98305.19
2022-09-10T07:48:08.349Z,98312.97
2022-09-10T07:50:38.287Z,98316.78
2022-09-10T07:53:05.533Z,98300.34
2022-09-10T07:55:32.986Z,98308.78
2022-09-10T07:58:00.407Z,98306.03
2022-09-10T08:00:29.142Z,98297.97
2022-09-10T08:02:59.419Z,98311.09
2022-09-10T08:05:28.749Z,98308.88
2022-09-10T08:07:55.683Z,98307.41
2022-09-10T08:10:25.204Z,98309.81
2022-09-10T08:12:52.233Z,98304.44
2022-09-10T08:15:19.810Z,98300.06
2022-09-10T08:17:46.950Z,98298.13
2022-09-10T08:20:14.723Z,98301.50
2022-09-10T08:22:43.911Z,98293.53
2022-09-10T08:25:10.955Z,98297.63
2022-09-10T08:27:38.606Z,98303.41
2022-09-10T08:30:08.922Z,98300.97
2022-09-10T08:32:37.035Z,98309.97
2022-09-10T08:35:06.755Z,98298.28
2022-09-10T08:37:34.197Z,98307.00
2022-09-10T08:40:01.848Z,98298.88
2022-09-10T08:42:56.711Z,98305.81
2022-09-10T08:45:28.958Z,98307.66
2022-09-10T08:48:23.240Z,98304.44
2022-09-10T08:51:02.967Z,98304.31
2022-09-10T08:53:38.077Z,98303.41
2022-09-10T08:56:10.399Z,98292.97
2022-09-10T08:58:44.691Z,98302.13
2022-09-10T09:01:18.334Z,98286.47
2022-09-10T09:03:47.100Z,98289.66
2022-09-10T09:06:44.344Z,98290.81
2022-09-10T09:09:15.663Z,98300.53
2022-09-10T09:11:59.037Z,98287.50
2022-09-10T09:14:59.175Z,98290.25
2022-09-10T09:17:56.625Z,98289.69
2022-09-10T09:20:54.461Z,98287.13
2022-09-10T09:23:33.333Z,98282.34
2022-09-10T09:26:11.317Z,98284.81
2022-09-10T09:28:51.603Z,98288.09
2022-09-10T09:31:30.029Z,98289.63
2022-09-10T09:34:14.595Z,98275.59
2022-09-10T09:36:47.579Z,98279.72
2022-09-10T09:39:25.811Z,98278.47
2022-09-10T09:42:19.698Z,98269.00
2022-09-10T09:45:02.147Z,98279.81
2022-09-10T09:47:30.084Z,98266.78
2022-09-10T09:49:58.145Z,98267.47
2022-09-10T09:52:27.383Z,98260.09
2022-09-10T09:55:15.937Z,98262.56
2022-09-10T09:57:43.126Z,98258.69
2022-09-10T10:00:33.481Z,98246.28
2022-09-10T10:03:15.034Z,98245.50
2022-09-10T10:05:42.921Z,98249.09
2022-09-10T10:08:34.105Z,98243.88
2022-09-10T10:11:01.483Z,98242.06
2022-09-10T10:13:43.197Z,98227.38
2022-09-10T10:16:23.849Z,98241.09
2022-09-10T10:18:50.959Z,98230.28
2022-09-10T10:21:36.847Z,98218.22
2022-09-10T10:24:04.127Z,98233.22
2022-09-10T10:26:33.611Z,98226.69
2022-09-10T10:29:16.351Z,98213.28
2022-09-10T10:31:45.480Z,98217.22
2022-09-10T10:34:18.051Z,98217.84
2022-09-10T10:36:57.129Z,98217.22
2022-09-10T10:39:45.376Z,98206.94
2022-09-10T10:42:39.901Z,98202.50
2022-09-10T10:45:31.034Z,98199.06
2022-09-10T10:48:25.121Z,98199.53
2022-09-10T10:51:17.248Z,98196.56
2022-09-10T10:53:53.768Z,98191.47
2022-09-10T10:56:26.585Z,98188.00
2022-09-10T10:59:14.755Z,98191.28
2022-09-10T11:01:48.539Z,98188.56
2022-09-10T11:04:24.360Z,98187.41
2022-09-10T11:07:16.728Z,98180.72
2022-09-10T11:09:51.840Z,98185.81
2022-09-10T11:12:31.559Z,98174.31
2022-09-10T11:15:02.150Z,98174.31
2022-09-10T11:17:39.582Z,98176.56
2022-09-10T11:20:28.405Z,98180.28
2022-09-10T11:23:16.779Z,98169.19
2022-09-10T11:26:08.896Z,98154.66
2022-09-10T11:28:52.182Z,98166.56
2022-09-10T11:31:33.826Z,98150.47
2022-09-10T11:34:38.345Z,98157.81
2022-09-10T11:37:10.794Z,98147.97
2022-09-10T11:39:48.652Z,98157.22
2022-09-10T11:42:39.789Z,98149.53
2022-09-10T11:45:25.992Z,98155.41
2022-09-10T11:48:00.219Z,98150.75
2022-09-10T11:50:34.935Z,98153.91
2022-09-10T11:53:03.892Z,98143.25
2022-09-10T11:56:05.963Z,98149.59
2022-09-10T11:58:44.458Z,98150.59
2022-09-10T12:01:38.665Z,98149.44
2022-09-10T12:04:39.251Z,98143.53
2022-09-10T12:07:37.037Z,98137.31
2022-09-10T12:10:23.085Z,98140.25
2022-09-10T12:12:51.080Z,98131.00
2022-09-10T12:15:33.923Z,98130.94
2022-09-10T12:18:06.919Z,98121.81
2022-09-10T12:20:42.211Z,98122.78
2022-09-10T12:23:16.014Z,98122.63
2022-09-10T12:25:42.688Z,98113.13
2022-09-10T12:28:41.823Z,98116.81
2022-09-10T12:31:11.522Z,98115.75
2022-09-10T12:33:43.989Z,98119.69
2022-09-10T12:36:14.845Z,98109.84
2022-09-10T12:39:06.954Z,98103.25
2022-09-10T12:41:36.041Z,98105.34
2022-09-10T12:44:24.775Z,98105.78
2022-09-10T12:47:16.396Z,98104.22
2022-09-10T12:49:54.985Z,98096.78
2022-09-10T12:52:49.198Z,98091.88
2022-09-10T12:55:29.108Z,98093.34
2022-09-10T12:58:16.375Z,98084.13
2022-09-10T13:00:54.022Z,98091.22
2022-09-10T13:03:22.556Z,98079.28
2022-09-10T13:05:53.188Z,98088.81
2022-09-10T13:08:38.032Z,98074.09
2022-09-10T13:11:15.690Z,98085.03
2022-09-10T13:13:49.065Z,98079.66
2022-09-10T13:16:26.470Z,98078.00
2022-09-10T13:19:12.948Z,98073.81
2022-09-10T13:21:45.730Z,98075.06
2022-09-10T13:24:32.336Z,98066.25
2022-09-10T13:27:22.640Z,98069.75
2022-09-10T13:30:11.518Z,98071.19
2022-09-10T13:32:55.324Z,98061.19
2022-09-10T13:35:59.122Z,98065.44
2022-09-10T13:38:53.978Z,98050.06
2022-09-10T13:41:32.499Z,98047.63
2022-09-10T13:44:07.843Z,98056.09
2022-09-10T13:46:42.138Z,98048.66
2022-09-10T13:49:17.064Z,98043.69
2022-09-10T13:51:53.017Z,98051.69
2022-09-10T13:54:23.599Z,98044.34
2022-09-10T13:56:50.717Z,98035.59
2022-09-10T13:59:30.698Z,98031.72
2022-09-10T14:02:00.144Z,98029.84
2022-09-10T14:04:44.742Z,98022.44
2022-09-10T14:07:29.436Z,98028.06
2022-09-10T14:10:03.147Z,98025.25
2022-09-10T14:12:35.933Z,98024.47
2022-09-10T14:15:07.394Z,98026.91
2022-09-10T14:17:43.583Z,98026.53
2022-09-10T14:20:34.417Z,98019.69
2022-09-10T14:23:08.639Z,98018.13
2022-09-10T14:25:39.601Z,98013.13
2022-09-10T14:28:16.673Z,98018.56
2022-09-10T14:30:46.049Z,98008.41
2022-09-10T14:33:28.891Z,98023.53
2022-09-10T14:36:02.237Z,98017.03
2022-09-10T14:38:35.231Z,98021.09
2022-09-10T14:41:08.829Z,98019.19
2022-09-10T14:43:39.424Z,98005.00
2022-09-10T14:46:10.656Z,98017.16
2022-09-10T14:48:42.687Z,98012.09
2022-09-10T14:51:24.096Z,98012.50
2022-09-10T14:53:58.691Z,98010.75
2022-09-10T14:56:47.028Z,98011.13
2022-09-10T14:59:24.916Z,98001.00
2022-09-10T15:01:54.971Z,98002.59
2022-09-10T15:04:29.139Z,98003.63
2022-09-10T15:06:58.712Z,98005.88
2022-09-10T15:09:29.178Z,98001.84
2022-09-10T15:12:04.051Z,98006.03
2022-09-10T15:14:33.960Z,98002.59
2022-09-10T15:17:02.530Z,98002.38
2022-09-10T15:19:30.219Z,97994.56
2022-09-10T15:21:58.817Z,98001.00
2022-09-10T15:24:26.600Z,98006.91
2022-09-10T15:26:57.056Z,97998.16
2022-09-10T15:29:26.706Z,97999.94
2022-09-10T15:31:55.245Z,97999.75
2022-09-10T15:34:23.127Z,97994.91
2022-09-10T15:36:51.437Z,97987.63
2022-09-10T15:39:18.634Z,97987.81
2022-09-10T15:41:46.937Z,97992.66
2022-09-10T15:44:15.563Z,97991.66
2022-09-10T15:46:45.922Z,98007.03
2022-09-10T15:49:14.267Z,98010.06
2022-09-10T15:51:42.334Z,98005.72
2022-09-10T15:54:11.786Z,98007.53
2022-09-10T15:56:43.262Z,98005.31
2022-09-10T15:59:12.203Z,97998.81
2022-09-10T16:01:41.728Z,98005.63
2022-09-10T16:04:12.583Z,97997.97
2022-09-10T16:06:41.245Z,97997.56
2022-09-10T16:09:12.689Z,97999.88
2022-09-10T16:11:43.665Z,98001.50
2022-09-10T16:14:14.577Z,97997.06
2022-09-10T16:16:45.322Z,97993.63
2022-09-10T16:19:15.317Z,97999.44
2022-09-10T16:21:46.765Z,97996.63
2022-09-10T16:24:16.274Z,97991.69
2022-09-10T16:26:46.797Z,97992.88
2022-09-10T16:29:17.376Z,97993.34
2022-09-10T16:31:48.985Z,97992.88
2022-09-10T16:34:20.229Z,98004.59
2022-09-10T16:36:56.675Z,98005.06
2022-09-10T16:39:25.429Z,98007.00
2022-09-10T16:41:53.670Z,98001.97
2022-09-10T16:44:22.201Z,97996.50
2022-09-10T16:46:50.775Z,98000.66
2022-09-10T16:49:20.748Z,98005.41
2022-09-10T16:51:50.431Z,97996.81
2022-09-10T16:54:23.414Z,97999.31
2022-09-10T16:56:51.836Z,98006.38
2022-09-10T16:59:22.757Z,98014.22
2022-09-10T17:01:52.586Z,98011.59
2022-09-10T17:04:28.524Z,98018.91
2022-09-10T17:07:00.778Z,98015.13
2022-09-10T17:09:28.527Z,98019.50
2022-09-10T17:11:56.808Z,98023.66
2022-09-10T17:14:24.860Z,98021.97
2022-09-10T17:16:53.015Z,98015.41
2022-09-10T17:19:28.801Z,98010.09
2022-09-10T17:21:57.339Z,98021.88
2022-09-10T17:24:27.951Z,98023.50
2022-09-10T17:26:57.754Z,98021.56
2022-09-10T17:29:27.113Z,98022.50
2022-09-10T17:31:59.046Z,98025.44
2022-09-10T17:34:29.010Z,98027.91
2022-09-10T17:36:58.023Z,98023.03
2022-09-10T17:39:28.945Z,98031.63
2022-09-10T17:41:56.821Z,98025.06
2022-09-10T17:44:26.395Z,98033.03
2022-09-10T17:46:55.729Z,98040.06
2022-09-10T17:49:24.029Z,98034.72
2022-09-10T17:51:52.620Z,98041.25
2022-09-10T17:54:20.835Z,98041.44
2022-09-10T17:56:48.848Z,98044.56
2022-09-10T17:59:17.213Z,98056.31
2022-09-10T18:01:45.908Z,98053.22
2022-09-10T18:04:14.403Z,98054.22
2022-09-10T18:06:42.586Z,98063.06
2022-09-10T18:09:12.642Z,98070.56
2022-09-10T18:11:41.865Z,98070.25
2022-09-10T18:14:19.832Z,98075.34
2022-09-10T18:16:48.261Z,98077.78
2022-09-10T18:19:18.632Z,98073.53
2022-09-10T18:21:47.435Z,98078.78
2022-09-10T18:24:28.074Z,98075.53
2022-09-10T18:26:55.955Z,98080.91
2022-09-10T18:29:25.726Z,98088.09
2022-09-10T18:31:58.732Z,98086.47
2022-09-10T18:34:30.927Z,98092.03
2022-09-10T18:37:02.619Z,98102.69
2022-09-10T18:39:31.482Z,98089.97
2022-09-10T18:42:00.598Z,98103.53
2022-09-10T18:44:30.780Z,98110.56
2022-09-10T18:46:57.375Z,98110.41
2022-09-10T18:49:25.157Z,98113.81
2022-09-10T18:51:53.138Z,98113.69
2022-09-10T18:54:21.157Z,98089.50
2022-09-10T18:56:49.027Z,98121.03
2022-09-10T18:59:20.244Z,98127.72
2022-09-10T19:01:48.058Z,98131.31
2022-09-10T19:04:17.723Z,98125.28
2022-09-10T19:06:49.140Z,98131.97
2022-09-10T19:09:26.871Z,98134.25
2022-09-10T19:11:55.468Z,98134.94
2022-09-10T19:14:27.677Z,98133.78
2022-09-10T19:16:56.406Z,98144.06
2022-09-10T19:19:26.630Z,98149.63
2022-09-10T19:22:02.834Z,98147.31
2022-09-10T19:24:53.515Z,98149.25
2022-09-10T19:27:17.082Z,98144.34
2022-09-10T19:29:44.394Z,98153.16
2022-09-10T19:32:11.414Z,98155.31
2022-09-10T19:34:39.000Z,98155.13
2022-09-10T19:37:07.056Z,98153.00
2022-09-10T19:39:33.693Z,98159.03
2022-09-10T19:42:00.578Z,98156.06
2022-09-10T19:44:27.337Z,98159.13
2022-09-10T19:46:53.912Z,98143.59
2022-09-10T19:49:20.506Z,98159.13
2022-09-10T19:51:47.393Z,98147.31
2022-09-10T19:54:14.413Z,98163.81
2022-09-10T19:56:42.549Z,98166.41
2022-09-10T19:59:09.860Z,98166.56
2022-09-10T20:01:40.041Z,98169.97
2022-09-10T20:04:09.716Z,98160.19
2022-09-10T20:06:37.604Z,98173.72
2022-09-10T20:09:06.315Z,98169.47
2022-09-10T20:11:35.113Z,98173.03
2022-09-10T20:14:10.182Z,98176.72
2022-09-10T20:16:39.244Z,98179.25
2022-09-10T20:19:06.840Z,98179.25
2022-09-10T20:21:34.303Z,98181.03
2022-09-10T20:24:01.246Z,98182.19
2022-09-10T20:26:30.663Z,98185.63
2022-09-10T20:29:03.920Z,98177.63
2022-09-10T20:31:32.524Z,98176.22
2022-09-10T20:34:00.998Z,98170.50
2022-09-10T20:36:28.527Z,98172.47
2022-09-10T20:38:55.996Z,98176.88
2022-09-10T20:41:24.164Z,98183.06
2022-09-10T20:43:52.224Z,98175.91
2022-09-10T20:46:22.289Z,98176.56
2022-09-10T20:48:50.995Z,98179.44
2022-09-10T20:51:19.224Z,98182.47
2022-09-10T20:53:46.214Z,98180.25
2022-09-10T20:56:19.707Z,98180.31
2022-09-10T20:58:47.477Z,98170.69
2022-09-10T21:01:20.013Z,98180.63
2022-09-10T21:03:48.407Z,98181.44
2022-09-10T21:06:18.296Z,98182.59
2022-09-10T21:08:47.540Z,98184.41
2022-09-10T21:11:16.442Z,98183.19
2022-09-10T21:13:51.542Z,98191.31
2022-09-10T21:16:21.073Z,98203.69
2022-09-10T21:18:54.721Z,98201.81
2022-09-10T21:21:25.645Z,98190.91
2022-09-10T21:23:54.993Z,98208.22
2022-09-10T21:26:25.181Z,98197.66
2022-09-10T21:28:59.960Z,98208.19
2022-09-10T21:31:28.334Z,98215.53
2022-09-10T21:34:00.642Z,98218.03
2022-09-10T21:36:29.385Z,98223.50
2022-09-10T21:39:00.972Z,98231.50
2022-09-10T21:41:39.998Z,98239.31
2022-09-10T21:44:15.144Z,98243.34
2022-09-10T21:46:43.321Z,98231.34
2022-09-10T21:49:10.063Z,98243.91
2022-09-10T21:51:36.930Z,98239.63
2022-09-10T21:54:04.757Z,98248.00
2022-09-10T21:56:31.776Z,98252.28
2022-09-10T21:59:00.362Z,98256.78
2022-09-10T22:01:30.063Z,98249.81
2022-09-10T22:04:00.006Z,98253.59
2022-09-10T22:06:28.736Z,98257.22
2022-09-10T22:08:58.411Z,98251.06
2022-09-10T22:11:37.593Z,98250.75
2022-09-10T22:14:12.041Z,98248.75
2022-09-10T22:16:39.021Z,98244.56
2022-09-10T22:19:09.369Z,98251.41
2022-09-10T22:21:38.524Z,98248.53
2022-09-10T22:24:06.457Z,98246.56
2022-09-10T22:26:34.484Z,98250.13
2022-09-10T22:29:02.622Z,98254.84
2022-09-10T22:31:34.026Z,98248.59
2022-09-10T22:34:03.334Z,98262.81
2022-09-10T22:36:32.932Z,98257.38
2022-09-10T22:39:02.456Z,98262.91
2022-09-10T22:41:31.583Z,98259.19
2022-09-10T22:43:58.392Z,98259.84
2022-09-10T22:46:25.094Z,98263.38
2022-09-10T22:48:51.736Z,98268.22
2022-09-10T22:51:24.483Z,98261.13
2022-09-10T22:53:53.175Z,98257.00
2022-09-10T22:56:22.142Z,98268.41
2022-09-10T22:58:51.618Z,98258.81
2022-09-10T23:01:21.040Z,98268.72
2022-09-10T23:03:48.511Z,98265.13
2022-09-10T23:06:18.100Z,98265.22
2022-09-10T23:08:47.281Z,98265.56
2022-09-10T23:11:22.575Z,98267.84
2022-09-10T23:13:53.706Z,98268.13
2022-09-10T23:16:29.195Z,98271.25
2022-09-10T23:18:57.428Z,98280.56
2022-09-10T23:21:25.868Z,98274.69
2022-09-10T23:23:57.480Z,98261.19
2022-09-10T23:26:24.749Z,98267.91
2022-09-10T23:28:52.050Z,98272.44
2022-09-10T23:31:20.612Z,98275.25
2022-09-10T23:33:52.839Z,98267.75
2022-09-10T23:36:19.389Z,98273.81
2022-09-10T23:38:46.088Z,98276.56
2022-09-10T23:41:13.105Z,98275.41
2022-09-10T23:43:40.350Z,98273.94
2022-09-10T23:46:07.697Z,98263.44
2022-09-10T23:48:35.383Z,98255.13
2022-09-10T23:51:02.822Z,98260.63
2022-09-10T23:53:29.936Z,98267.31
2022-09-10T23:55:57.313Z,98269.34
2022-09-10T23:58:24.132Z,98250.06
